Time;durP1;ratioP1;P1;durP2;ratioP2;P2;SDS_P1;SDS_P2;PMS_P1;PMS_P2;Temp;Humidity;BMP_temperature;BMP_pressure;BME280_temperature;BME280_humidity;BME280_pressure;Samples;Min_cycle;Max_cycle;Signal;HPM_P1;HPM_P2
2023/09/18 00:00:25;;;;;;;37.53;20.90;;;;;;;-145.18;100.00;46642.81;5011304;28;20033;-63
2023/09/18 00:02:50;;;;;;;36.30;22.13;;;;;;;-145.18;100.00;46652.59;5010496;28;20021;-63
2023/09/18 00:05:16;;;;;;;28.93;21.80;;;;;;;-145.18;100.00;46656.50;5011711;28;20037;-62
2023/09/18 00:07:45;;;;;;;32.20;20.80;;;;;;;-145.18;100.00;46652.59;5011363;28;20690;-63
2023/09/18 00:10:11;;;;;;;30.80;21.33;;;;;;;-145.18;100.00;46654.53;5011499;28;20552;-63
2023/09/18 00:12:37;;;;;;;31.73;20.50;;;;;;;-145.18;100.00;46656.50;5010074;28;20022;-63
2023/09/18 00:15:04;;;;;;;27.27;20.03;;;;;;;-145.18;100.00;46654.53;5011344;28;20061;-63
2023/09/18 00:17:29;;;;;;;30.40;20.23;;;;;;;-145.18;100.00;46654.53;5009767;28;20040;-62
2023/09/18 00:19:55;;;;;;;27.27;20.57;;;;;;;-145.18;100.00;46654.53;5011612;28;20030;-62
2023/09/18 00:22:20;;;;;;;33.10;21.20;;;;;;;-145.18;100.00;46652.59;5011420;28;20402;-63
2023/09/18 00:24:46;;;;;;;30.33;20.73;;;;;;;-145.18;100.00;46656.50;5011080;28;20058;-63
2023/09/18 00:27:11;;;;;;;27.27;19.77;;;;;;;-145.18;100.00;46652.59;5011325;28;20037;-62
2023/09/18 00:29:37;;;;;;;27.37;19.90;;;;;;;-145.18;100.00;46652.59;5011353;28;20496;-63
2023/09/18 00:32:02;;;;;;;28.47;20.17;;;;;;;-145.18;100.00;46652.59;5007095;28;20585;-63
2023/09/18 00:34:31;;;;;;;31.20;19.97;;;;;;;-145.18;100.00;46650.63;5011700;28;20037;-62
2023/09/18 00:36:57;;;;;;;28.07;20.03;;;;;;;-145.18;100.00;46654.53;5010879;28;20038;-63
2023/09/18 00:39:22;;;;;;;35.40;20.20;;;;;;;-145.18;100.00;46652.59;5011630;28;20034;-62
2023/09/18 00:41:51;;;;;;;29.50;19.43;;;;;;;-145.18;100.00;46650.63;5011382;28;20418;-62
2023/09/18 00:44:16;;;;;;;31.60;21.43;;;;;;;-145.18;100.00;46648.69;5009436;28;20030;-63
2023/09/18 00:46:43;;;;;;;31.80;19.90;;;;;;;-145.18;100.00;46654.53;5010019;28;20038;-63
2023/09/18 00:49:10;;;;;;;26.77;19.63;;;;;;;-145.18;100.00;46652.59;5009684;28;20121;-62
2023/09/18 00:51:35;;;;;;;32.57;20.73;;;;;;;-145.18;100.00;46654.53;5008741;28;20060;-62
2023/09/18 00:54:01;;;;;;;33.93;21.87;;;;;;;-145.18;100.00;46640.88;5002578;28;20042;-63
2023/09/18 00:56:26;;;;;;;33.77;21.50;;;;;;;-145.18;100.00;46648.69;5009864;28;20108;-62
2023/09/18 00:58:52;;;;;;;31.10;19.87;;;;;;;-145.18;100.00;46652.59;5011223;28;20108;-62
2023/09/18 01:01:22;;;;;;;30.70;20.17;;;;;;;-145.18;100.00;46654.53;5009502;28;20084;-62
2023/09/18 01:03:51;;;;;;;30.30;19.50;;;;;;;-145.18;100.00;46652.59;5011474;28;20045;-63
2023/09/18 01:06:19;;;;;;;26.63;19.37;;;;;;;-145.18;100.00;46654.53;5006410;28;20109;-62
2023/09/18 01:08:46;;;;;;;35.87;23.30;;;;;;;-145.18;100.00;46658.44;5008608;28;20085;-62
2023/09/18 01:11:30;;;;;;;29.70;20.87;;;;;;;-145.18;100.00;46656.50;5010463;28;20042;-63
2023/09/18 01:14:20;;;;;;;31.93;21.37;;;;;;;-145.18;100.00;46650.63;5014643;28;20044;-62
2023/09/18 01:16:58;;;;;;;33.13;21.77;;;;;;;-145.18;100.00;46654.53;5003177;28;20417;-62
2023/09/18 01:19:46;;;;;;;34.47;20.67;;;;;;;-145.18;100.00;46656.50;5008023;28;20105;-62
2023/09/18 01:22:19;;;;;;;31.47;21.67;;;;;;;-145.18;100.00;46656.50;5007935;28;20034;-63
2023/09/18 01:24:49;;;;;;;33.13;21.80;;;;;;;-145.18;100.00;46654.53;5007086;28;20026;-63
2023/09/18 01:27:17;;;;;;;28.77;20.57;;;;;;;-145.18;100.00;46652.59;5009008;28;20038;-62
2023/09/18 01:29:44;;;;;;;32.13;20.73;;;;;;;-145.18;100.00;46656.50;5014055;28;20057;-62
2023/09/18 01:32:09;;;;;;;36.03;21.57;;;;;;;-145.18;100.00;46650.63;5011606;28;20115;-62
2023/09/18 01:34:42;;;;;;;31.00;20.77;;;;;;;-145.18;100.00;46654.53;5002628;28;20445;-72
2023/09/18 01:37:11;;;;;;;27.17;19.77;;;;;;;-145.18;100.00;46654.53;5013471;28;20022;-72
2023/09/18 01:39:38;;;;;;;27.63;20.87;;;;;;;-145.18;100.00;46650.63;5013698;28;20022;-72
2023/09/18 01:42:05;;;;;;;29.27;19.27;;;;;;;-145.18;100.00;46642.81;5011532;28;20026;-72
2023/09/18 01:44:32;;;;;;;30.60;21.20;;;;;;;-145.18;100.00;46650.63;5008168;28;20037;-72
2023/09/18 01:46:59;;;;;;;37.40;23.83;;;;;;;-145.18;100.00;46650.63;5013555;28;20025;-71
2023/09/18 01:49:42;;;;;;;39.47;25.57;;;;;;;-145.18;100.00;46652.59;5013569;28;20034;-72
2023/09/18 01:52:09;;;;;;;41.17;24.63;;;;;;;-145.18;100.00;46640.88;5012903;28;20021;-72
2023/09/18 01:54:35;;;;;;;35.23;23.07;;;;;;;-145.18;100.00;46640.88;5012456;28;20029;-71
2023/09/18 01:57:01;;;;;;;35.80;21.73;;;;;;;-145.18;100.00;46640.88;5008393;28;20030;-72
2023/09/18 01:59:27;;;;;;;32.20;21.00;;;;;;;-145.18;100.00;46640.88;5013776;28;20029;-71
2023/09/18 02:01:53;;;;;;;34.93;21.03;;;;;;;-145.18;100.00;46640.88;5013524;28;20029;-72
2023/09/18 02:04:19;;;;;;;30.57;20.97;;;;;;;-145.18;100.00;46640.88;5011216;28;20382;-71
2023/09/18 02:06:47;;;;;;;29.30;20.23;;;;;;;-145.18;100.00;46635.00;5010862;28;20096;-71
2023/09/18 02:09:12;;;;;;;29.63;19.47;;;;;;;-145.18;100.00;46640.88;5011088;28;20030;-71
2023/09/18 02:11:40;;;;;;;28.60;18.53;;;;;;;-145.18;100.00;46638.91;5013688;28;20018;-71
2023/09/18 02:14:06;;;;;;;28.80;18.93;;;;;;;-145.18;100.00;46640.88;5013566;28;20125;-71
2023/09/18 02:16:37;;;;;;;27.83;18.87;;;;;;;-145.18;100.00;46640.88;5012369;28;20069;-71
2023/09/18 02:19:03;;;;;;;29.50;18.37;;;;;;;-145.18;100.00;46652.59;5011671;28;20033;-71
2023/09/18 02:21:29;;;;;;;23.57;17.53;;;;;;;-145.18;100.00;46648.69;5009556;28;20038;-72
2023/09/18 02:23:55;;;;;;;28.47;17.93;;;;;;;-145.18;100.00;46652.59;5011871;28;20022;-72
2023/09/18 02:26:22;;;;;;;26.67;16.30;;;;;;;-145.18;100.00;46654.53;5009180;28;20033;-72
2023/09/18 02:28:47;;;;;;;26.93;17.77;;;;;;;-145.18;100.00;46658.44;5012115;28;20037;-71
2023/09/18 02:31:13;;;;;;;23.73;16.57;;;;;;;-145.18;100.00;46656.50;5013198;28;20026;-72
2023/09/18 02:33:39;;;;;;;24.60;15.90;;;;;;;-145.18;100.00;46652.59;5011703;28;20037;-72
2023/09/18 02:36:05;;;;;;;25.27;15.97;;;;;;;-145.18;100.00;46658.44;5000023;28;20045;-72
2023/09/18 02:38:30;;;;;;;22.17;15.90;;;;;;;-145.18;100.00;46654.53;5005609;28;20030;-72
2023/09/18 02:40:56;;;;;;;28.43;15.27;;;;;;;-145.18;100.00;46660.41;5012269;28;20040;-71
2023/09/18 02:43:22;;;;;;;21.13;14.87;;;;;;;-145.18;100.00;46654.53;5012547;28;20087;-62
2023/09/18 02:45:48;;;;;;;22.40;15.23;;;;;;;-145.18;100.00;46658.44;5012876;28;20472;-63
2023/09/18 02:48:13;;;;;;;20.97;14.17;;;;;;;-145.18;100.00;46656.50;5013082;28;20026;-62
2023/09/18 02:50:39;;;;;;;23.40;15.17;;;;;;;-145.18;100.00;46660.41;5012572;28;20057;-62
2023/09/18 02:53:06;;;;;;;18.50;13.87;;;;;;;-145.18;100.00;46658.44;5010015;28;20022;-62
2023/09/18 02:55:32;;;;;;;21.50;14.30;;;;;;;-145.18;100.00;46660.41;5004343;28;20018;-63
2023/09/18 02:57:57;;;;;;;19.90;14.30;;;;;;;-145.18;100.00;46658.44;5005529;28;20037;-63
2023/09/18 03:00:23;;;;;;;18.10;13.47;;;;;;;-145.18;100.00;46656.50;5012773;28;20037;-62
2023/09/18 03:02:48;;;;;;;19.03;13.10;;;;;;;-145.18;100.00;46656.50;5012901;28;20103;-63
2023/09/18 03:05:14;;;;;;;19.37;13.93;;;;;;;-145.18;100.00;46660.41;5003785;28;20580;-63
2023/09/18 03:07:39;;;;;;;19.70;13.90;;;;;;;-145.18;100.00;46656.50;5012592;28;20076;-62
2023/09/18 03:10:05;;;;;;;19.93;13.83;;;;;;;-145.18;100.00;46658.44;5012324;28;20104;-62
2023/09/18 03:12:31;;;;;;;22.00;14.30;;;;;;;-145.18;100.00;46660.41;5007444;28;20045;-62
2023/09/18 03:14:57;;;;;;;17.63;13.13;;;;;;;-145.18;100.00;46660.41;5012761;28;20018;-62
2023/09/18 03:17:22;;;;;;;23.63;13.73;;;;;;;-145.18;100.00;46660.41;5011197;28;20073;-62
2023/09/18 03:19:50;;;;;;;26.17;12.73;;;;;;;-145.18;100.00;46658.44;5012487;28;20109;-62
2023/09/18 03:22:16;;;;;;;17.97;12.00;;;;;;;-145.18;100.00;46660.41;5012049;28;20123;-62
2023/09/18 03:24:41;;;;;;;23.97;12.37;;;;;;;-145.18;100.00;46656.50;5012235;28;20540;-62
2023/09/18 03:27:07;;;;;;;19.60;12.73;;;;;;;-145.18;100.00;46660.41;5012092;28;20106;-62
2023/09/18 03:29:32;;;;;;;14.77;10.57;;;;;;;-145.18;100.00;46660.41;5009987;28;20030;-62
2023/09/18 03:31:59;;;;;;;20.00;11.00;;;;;;;-145.18;100.00;46660.41;5007632;28;20044;-62
2023/09/18 03:34:28;;;;;;;14.10;5.27;;;;;;;-145.18;100.00;46654.53;5011761;28;20057;-62
2023/09/18 03:36:53;;;;;;;9.63;1.87;;;;;;;-145.18;100.00;46658.44;5011501;28;20034;-64
2023/09/18 03:39:19;;;;;;;1.93;1.00;;;;;;;-145.18;100.00;46660.41;5009632;28;20063;-64
2023/09/18 03:41:45;;;;;;;3.43;0.80;;;;;;;-145.18;100.00;46660.41;5010136;28;20034;-64
2023/09/18 03:44:10;;;;;;;2.37;0.90;;;;;;;-145.18;100.00;46631.09;5011638;28;20092;-64
2023/09/18 03:46:36;;;;;;;6.57;1.30;;;;;;;-145.18;100.00;46633.06;5002531;28;20410;-64
2023/09/18 03:49:02;;;;;;;2.30;1.00;;;;;;;-145.18;100.00;46633.06;5011776;28;20060;-64
2023/09/18 03:51:29;;;;;;;3.67;1.37;;;;;;;-145.18;100.00;46633.06;5011624;28;20026;-63
2023/09/18 03:53:55;;;;;;;6.30;1.40;;;;;;;-145.18;100.00;46635.00;5008660;28;20033;-63
2023/09/18 03:56:21;;;;;;;4.93;1.33;;;;;;;-145.18;100.00;46633.06;5011308;28;20079;-63
2023/09/18 03:58:49;;;;;;;2.03;1.13;;;;;;;-145.18;100.00;46636.94;5011596;28;20063;-63
2023/09/18 04:01:17;;;;;;;4.73;1.60;;;;;;;-145.18;100.00;46660.41;5003365;28;20041;-63
2023/09/18 04:03:43;;;;;;;5.17;1.60;;;;;;;-145.18;100.00;46636.94;5009063;28;20555;-63
2023/09/18 04:06:08;;;;;;;5.00;1.50;;;;;;;-145.18;100.00;46660.41;5010016;28;20037;-63
2023/09/18 04:08:33;;;;;;;4.07;1.50;;;;;;;-145.18;100.00;46633.06;5011241;28;20100;-63
2023/09/18 04:10:59;;;;;;;3.63;1.63;;;;;;;-145.18;100.00;46633.06;5011873;28;20486;-63
2023/09/18 04:13:25;;;;;;;2.70;1.90;;;;;;;-145.18;100.00;46660.41;5005536;28;20023;-63
2023/09/18 04:15:51;;;;;;;4.20;1.87;;;;;;;-145.18;100.00;46660.41;5003158;28;20037;-63
2023/09/18 04:18:17;;;;;;;5.07;2.00;;;;;;;-145.18;100.00;46660.41;5000470;28;20494;-63
2023/09/18 04:20:42;;;;;;;5.23;2.40;;;;;;;-145.18;100.00;46660.41;5011426;28;20089;-63
2023/09/18 04:23:22;;;;;;;5.17;2.60;;;;;;;-145.18;100.00;46660.41;5005599;28;20383;-63
2023/09/18 04:25:49;;;;;;;6.07;3.13;;;;;;;-145.18;100.00;46660.41;5011828;28;20041;-63
2023/09/18 04:28:17;;;;;;;8.43;3.90;;;;;;;-145.18;100.00;46654.53;5011109;28;20026;-63
2023/09/18 04:30:42;;;;;;;8.27;3.17;;;;;;;-145.18;100.00;46654.53;5011399;28;20119;-63
2023/09/18 04:33:08;;;;;;;6.53;3.30;;;;;;;-145.18;100.00;46656.50;5009566;28;20081;-63
2023/09/18 04:35:33;;;;;;;6.43;4.20;;;;;;;-145.18;100.00;46654.53;5011339;28;20041;-63
2023/09/18 04:37:59;;;;;;;7.83;3.87;;;;;;;-145.18;100.00;46654.53;5011126;28;20080;-63
2023/09/18 04:40:26;;;;;;;7.53;4.50;;;;;;;-145.18;100.00;46654.53;5011488;28;20021;-63
2023/09/18 04:42:52;;;;;;;9.00;4.53;;;;;;;-145.18;100.00;46652.59;5003603;28;20045;-63
2023/09/18 04:45:17;;;;;;;7.17;3.73;;;;;;;-145.18;100.00;46640.88;5001399;28;20506;-63
2023/09/18 04:47:43;;;;;;;5.27;3.63;;;;;;;-145.18;100.00;46640.88;5012740;28;20041;-63
2023/09/18 04:50:09;;;;;;;5.70;3.90;;;;;;;-145.18;100.00;46638.91;5015339;28;20026;-63
2023/09/18 04:52:35;;;;;;;6.37;4.33;;;;;;;-145.18;100.00;46650.63;5013443;28;20485;-63
2023/09/18 04:55:01;;;;;;;7.37;3.30;;;;;;;-145.18;100.00;46636.94;5013282;28;20026;-63
2023/09/18 04:57:26;;;;;;;7.37;3.90;;;;;;;-145.18;100.00;46635.00;5013640;28;20080;-63
2023/09/18 04:59:52;;;;;;;6.83;4.33;;;;;;;-145.18;100.00;46635.00;5015109;28;20091;-63
2023/09/18 05:02:17;;;;;;;5.43;3.40;;;;;;;-145.18;100.00;46638.91;5014063;28;20499;-63
2023/09/18 05:04:43;;;;;;;8.40;4.87;;;;;;;-145.18;100.00;46636.94;5010142;28;20117;-63
2023/09/18 05:07:08;;;;;;;14.40;5.87;;;;;;;-145.18;100.00;46638.91;5007082;28;20046;-62
2023/09/18 05:09:34;;;;;;;8.00;6.17;;;;;;;-145.18;100.00;46638.91;5013321;28;20026;-63
2023/09/18 05:12:00;;;;;;;11.40;6.40;;;;;;;-145.18;100.00;46635.00;5014845;28;20092;-63
2023/09/18 05:14:25;;;;;;;11.30;6.73;;;;;;;-145.18;100.00;46633.06;5013426;28;20481;-63
2023/09/18 05:16:51;;;;;;;9.97;6.83;;;;;;;-145.18;100.00;46635.00;5014209;28;20057;-63
2023/09/18 05:19:16;;;;;;;10.00;7.13;;;;;;;-145.18;100.00;46633.06;5013186;28;20559;-63
2023/09/18 05:21:42;;;;;;;10.53;8.07;;;;;;;-145.18;100.00;46633.06;5008554;28;20030;-63
2023/09/18 05:24:07;;;;;;;9.30;7.17;;;;;;;-145.18;100.00;46636.94;5013712;28;20030;-63
2023/09/18 05:26:33;;;;;;;12.57;8.30;;;;;;;-145.18;100.00;46636.94;5014601;28;20185;-63
2023/09/18 05:28:59;;;;;;;11.47;8.00;;;;;;;-145.18;100.00;46635.00;5012664;28;20509;-63
2023/09/18 05:31:24;;;;;;;14.10;8.90;;;;;;;-145.18;100.00;46633.06;5014035;28;20101;-63
2023/09/18 05:33:50;;;;;;;11.90;8.60;;;;;;;-145.18;100.00;46635.00;5012734;28;20030;-63
2023/09/18 05:36:15;;;;;;;13.23;8.47;;;;;;;-145.18;100.00;46631.09;5014113;28;20413;-63
2023/09/18 05:38:43;;;;;;;13.33;8.77;;;;;;;-145.18;100.00;46633.06;5011678;28;20133;-63
2023/09/18 05:41:09;;;;;;;17.50;9.40;;;;;;;-145.18;100.00;46633.06;5012959;28;20038;-63
2023/09/18 05:43:35;;;;;;;11.97;8.23;;;;;;;-145.18;100.00;46633.06;5012496;28;20034;-63
2023/09/18 05:46:01;;;;;;;18.37;9.13;;;;;;;-145.18;100.00;46631.09;5014294;28;20034;-63
2023/09/18 05:48:26;;;;;;;18.40;8.80;;;;;;;-145.18;100.00;46635.00;5013662;28;20037;-63
2023/09/18 05:50:53;;;;;;;14.50;9.53;;;;;;;-145.18;100.00;46633.06;5013952;28;20038;-63
2023/09/18 05:53:19;;;;;;;13.07;8.67;;;;;;;-145.18;100.00;46635.00;5013659;28;20477;-63
2023/09/18 05:55:45;;;;;;;16.33;9.50;;;;;;;-145.18;100.00;46633.06;5013796;28;20029;-63
2023/09/18 05:58:10;;;;;;;22.77;9.30;;;;;;;-145.18;100.00;46631.09;5013286;28;20375;-63
2023/09/18 06:00:36;;;;;;;17.67;8.50;;;;;;;-145.18;100.00;46633.06;5013774;28;20379;-63
2023/09/18 06:03:02;;;;;;;11.33;8.60;;;;;;;-145.18;100.00;46629.13;4995742;28;20117;-63
2023/09/18 06:05:30;;;;;;;11.47;8.40;;;;;;;-145.18;100.00;46633.06;5013391;28;20120;-63
2023/09/18 06:07:56;;;;;;;13.40;8.73;;;;;;;-145.18;100.00;46635.00;5013641;28;20037;-63
2023/09/18 06:10:21;;;;;;;13.13;8.40;;;;;;;-145.18;100.00;46633.06;5013487;28;20030;-63
2023/09/18 06:12:47;;;;;;;15.07;9.07;;;;;;;-145.18;100.00;46629.13;5013783;28;20091;-63
2023/09/18 06:15:12;;;;;;;12.23;8.43;;;;;;;-145.18;100.00;46633.06;5013460;28;20037;-73
2023/09/18 06:17:42;;;;;;;10.43;7.70;;;;;;;-145.18;100.00;46631.09;5012831;28;20201;-73
2023/09/18 06:20:09;;;;;;;11.47;7.07;;;;;;;-145.18;100.00;46635.00;5012145;28;20505;-73
2023/09/18 06:22:37;;;;;;;13.90;7.30;;;;;;;-145.18;100.00;46636.94;5013352;28;20026;-73
2023/09/18 06:25:03;;;;;;;10.37;7.13;;;;;;;-145.18;100.00;46636.94;5013270;28;20034;-73
2023/09/18 06:27:28;;;;;;;10.20;7.17;;;;;;;-145.18;100.00;46650.63;5012740;28;20049;-73
2023/09/18 06:29:54;;;;;;;8.83;6.23;;;;;;;-145.18;100.00;46656.50;5013123;28;20084;-73
2023/09/18 06:32:19;;;;;;;12.07;7.27;;;;;;;-145.18;100.00;46656.50;5013032;28;20030;-73
2023/09/18 06:34:45;;;;;;;12.40;7.00;;;;;;;-145.18;100.00;46660.41;5013212;28;20033;-73
2023/09/18 06:37:13;;;;;;;9.93;6.17;;;;;;;-145.18;100.00;46658.44;5012577;28;20042;-73
2023/09/18 06:39:39;;;;;;;10.13;5.40;;;;;;;-145.18;100.00;46660.41;5013040;28;20033;-73
2023/09/18 06:42:05;;;;;;;11.73;6.17;;;;;;;-145.18;100.00;46627.19;5011833;28;20033;-73
2023/09/18 06:44:30;;;;;;;7.43;5.30;;;;;;;-145.18;100.00;46621.31;5012555;28;20034;-73
2023/09/18 06:46:55;;;;;;;9.53;5.57;;;;;;;-145.18;100.00;46625.22;5013064;28;20040;-73
2023/09/18 06:49:21;;;;;;;8.03;5.13;;;;;;;-145.18;100.00;46621.31;5012563;28;20088;-73
2023/09/18 06:51:46;;;;;;;8.23;5.50;;;;;;;-145.18;100.00;46625.22;5012972;28;20037;-73
2023/09/18 06:54:12;;;;;;;9.77;5.23;;;;;;;-145.18;100.00;46660.41;5012831;28;20045;-73
2023/09/18 06:56:37;;;;;;;9.97;5.43;;;;;;;-145.18;100.00;46627.19;5012306;28;20099;-73
2023/09/18 06:59:03;;;;;;;11.50;5.80;;;;;;;-145.18;100.00;46625.22;5012156;28;20054;-73
2023/09/18 07:01:28;;;;;;;7.87;5.73;;;;;;;-145.18;100.00;46623.28;5012463;28;20037;-73
2023/09/18 07:03:53;;;;;;;10.77;5.40;;;;;;;-145.18;100.00;46625.22;5006632;28;20457;-73
2023/09/18 07:06:20;;;;;;;11.40;5.87;;;;;;;-145.18;100.00;46627.19;5012403;28;20038;-73
2023/09/18 07:08:47;;;;;;;11.80;6.03;;;;;;;-145.18;100.00;46625.22;5011578;28;20022;-73
2023/09/18 07:11:12;;;;;;;8.67;5.47;;;;;;;-145.18;100.00;46625.22;5012000;28;20098;-73
2023/09/18 07:13:38;;;;;;;10.57;5.13;;;;;;;-145.18;100.00;46623.28;5012275;28;20026;-73
2023/09/18 07:16:04;;;;;;;10.30;5.57;;;;;;;-145.18;100.00;46625.22;5012248;28;20085;-73
2023/09/18 07:18:29;;;;;;;12.10;5.60;;;;;;;-145.18;100.00;46627.19;5010647;28;20064;-73
2023/09/18 07:20:55;;;;;;;6.97;4.70;;;;;;;-145.18;100.00;46627.19;5012074;28;20049;-73
2023/09/18 07:23:20;;;;;;;8.43;5.90;;;;;;;-145.18;100.00;46627.19;5011432;28;20080;-73
2023/09/18 07:25:48;;;;;;;6.30;4.73;;;;;;;-145.18;100.00;46623.28;5011913;28;20026;-73
2023/09/18 07:28:17;;;;;;;11.30;5.23;;;;;;;-145.18;100.00;46627.19;5011912;28;20139;-73
2023/09/18 07:30:43;;;;;;;6.77;4.90;;;;;;;-145.18;100.00;46623.28;5012075;28;20129;-73
2023/09/18 07:33:12;;;;;;;9.93;5.37;;;;;;;-145.18;100.00;46625.22;5009134;28;20030;-73
2023/09/18 07:35:38;;;;;;;8.43;5.07;;;;;;;-145.18;100.00;46625.22;5010515;28;20456;-73
2023/09/18 07:38:04;;;;;;;11.00;5.63;;;;;;;-145.18;100.00;46623.28;5010441;28;20044;-73
2023/09/18 07:40:29;;;;;;;7.20;5.13;;;;;;;-145.18;100.00;46623.28;5012031;28;20125;-73
2023/09/18 07:42:54;;;;;;;7.50;5.23;;;;;;;-145.18;100.00;46627.19;5006625;28;20084;-73
2023/09/18 07:45:20;;;;;;;11.20;5.37;;;;;;;-145.18;100.00;46625.22;5011897;28;20112;-73
2023/09/18 07:47:45;;;;;;;9.67;4.70;;;;;;;-145.18;100.00;46623.28;5011497;28;20029;-73
2023/09/18 07:50:11;;;;;;;15.50;5.50;;;;;;;-145.18;100.00;46623.28;5009014;28;20038;-72
2023/09/18 07:52:36;;;;;;;7.30;4.77;;;;;;;-145.18;100.00;46627.19;5011163;28;20620;-72
2023/09/18 07:55:02;;;;;;;9.43;5.10;;;;;;;-145.18;100.00;46625.22;4993414;28;20292;-73
2023/09/18 07:57:30;;;;;;;7.00;5.00;;;;;;;-145.18;100.00;46627.19;5005145;28;20549;-73
2023/09/18 07:59:55;;;;;;;5.83;4.50;;;;;;;-145.18;100.00;46625.22;5005763;28;20034;-73
2023/09/18 08:02:21;;;;;;;7.53;4.90;;;;;;;-145.18;100.00;46623.28;5006493;28;20075;-72
2023/09/18 08:04:47;;;;;;;8.73;4.37;;;;;;;-145.18;100.00;46623.28;5008011;28;20053;-72
2023/09/18 08:07:12;;;;;;;4.80;3.80;;;;;;;-145.18;100.00;46629.13;5010733;28;20038;-72
2023/09/18 08:09:38;;;;;;;5.93;4.40;;;;;;;-145.18;100.00;46629.13;5003189;28;20462;-73
2023/09/18 08:12:08;;;;;;;7.83;4.20;;;;;;;-145.18;100.00;46627.19;5009334;28;20038;-72
2023/09/18 08:14:36;;;;;;;4.93;4.00;;;;;;;-145.18;100.00;46629.13;5009232;28;20037;-73
2023/09/18 08:17:04;;;;;;;8.47;4.50;;;;;;;-145.18;100.00;46625.22;5004031;28;20084;-73
2023/09/18 08:19:29;;;;;;;6.57;4.50;;;;;;;-145.18;100.00;46627.19;5006435;28;20030;-73
2023/09/18 08:21:59;;;;;;;7.57;5.07;;;;;;;-145.18;100.00;46627.19;5010368;28;20068;-72
2023/09/18 08:24:25;;;;;;;6.93;4.33;;;;;;;-145.18;100.00;46623.28;5007203;28;20030;-72
2023/09/18 08:26:50;;;;;;;5.03;3.80;;;;;;;-145.18;100.00;46629.13;5007134;28;20044;-72
2023/09/18 08:29:16;;;;;;;7.97;4.23;;;;;;;-145.18;100.00;46629.13;5014969;28;20121;-73
2023/09/18 08:31:42;;;;;;;6.73;4.90;;;;;;;-145.18;100.00;46631.09;5013643;28;20057;-72
2023/09/18 08:34:07;;;;;;;6.77;4.50;;;;;;;-145.18;100.00;46631.09;5014878;28;20046;-62
2023/09/18 08:36:33;;;;;;;6.53;4.23;;;;;;;-145.18;100.00;46635.00;5013883;28;20025;-62
2023/09/18 08:38:58;;;;;;;6.23;4.37;;;;;;;-145.18;100.00;46636.94;5013150;28;20036;-63
2023/09/18 08:41:26;;;;;;;5.47;4.50;;;;;;;-145.18;100.00;46635.00;5014457;28;20547;-63
2023/09/18 08:43:56;;;;;;;5.47;4.17;;;;;;;-145.18;100.00;46640.88;5013899;28;20033;-63
2023/09/18 08:46:22;;;;;;;9.70;4.33;;;;;;;-145.18;100.00;46642.81;5014561;28;20084;-63
2023/09/18 08:48:49;;;;;;;6.93;4.13;;;;;;;-145.18;100.00;46640.88;5014641;28;20088;-63
2023/09/18 08:51:15;;;;;;;9.30;3.40;;;;;;;-145.18;100.00;46642.81;5000606;28;20076;-63
2023/09/18 08:53:41;;;;;;;6.70;3.60;;;;;;;-145.18;100.00;46654.53;5014569;28;20030;-63
2023/09/18 08:56:08;;;;;;;7.13;3.40;;;;;;;-145.18;100.00;46648.69;5014514;28;20061;-62
2023/09/18 08:58:39;;;;;;;7.50;3.40;;;;;;;-145.18;100.00;46648.69;5010716;28;20457;-63
2023/09/18 09:01:06;;;;;;;6.00;3.20;;;;;;;-145.18;100.00;46656.50;5010262;28;20046;-63
2023/09/18 09:03:34;;;;;;;5.07;2.97;;;;;;;-145.18;100.00;46652.59;5012852;28;20037;-63
2023/09/18 09:06:01;;;;;;;6.13;4.07;;;;;;;-145.18;100.00;46654.53;5008849;28;20028;-63
2023/09/18 09:08:27;;;;;;;6.87;3.33;;;;;;;-145.18;100.00;46664.31;5006364;28;20034;-63
2023/09/18 09:10:53;;;;;;;5.13;3.50;;;;;;;-145.18;100.00;46660.41;5001368;28;20034;-63
2023/09/18 09:13:24;;;;;;;4.67;3.17;;;;;;;-145.18;100.00;46662.34;5013794;28;20104;-63
2023/09/18 09:15:53;;;;;;;10.23;4.20;;;;;;;-145.18;100.00;46664.31;5012234;28;20077;-63
2023/09/18 09:18:19;;;;;;;8.40;4.30;;;;;;;-145.18;100.00;46666.25;5008703;28;20188;-63
2023/09/18 09:20:59;;;;;;;8.13;5.83;;;;;;;-145.18;100.00;46660.41;5003308;28;20044;-63
2023/09/18 09:23:43;;;;;;;8.70;7.80;;;;;;;-145.18;100.00;46660.41;5013471;28;20474;-62
2023/09/18 09:26:14;;;;;;;10.20;8.33;;;;;;;-145.18;100.00;46668.22;5009551;28;20026;-63
2023/09/18 09:28:39;;;;;;;11.13;9.30;;;;;;;-145.18;100.00;46660.41;5000571;28;20061;-63
2023/09/18 09:31:05;;;;;;;12.97;8.77;;;;;;;-145.18;100.00;46660.41;5007375;28;20068;-62
2023/09/18 09:33:31;;;;;;;11.13;9.37;;;;;;;-145.18;100.00;46662.34;5012776;28;20034;-63
2023/09/18 09:35:57;;;;;;;11.57;8.60;;;;;;;-145.18;100.00;46656.50;5010590;28;20030;-62
2023/09/18 09:38:33;;;;;;;9.00;8.03;;;;;;;-145.18;100.00;46662.34;5005699;28;20030;-63
2023/09/18 09:41:00;;;;;;;25.43;16.67;;;;;;;-145.18;100.00;46662.34;5013421;28;20034;-63
2023/09/18 09:43:27;;;;;;;9.60;8.57;;;;;;;-145.18;100.00;46660.41;5012821;28;20569;-72
2023/09/18 09:46:01;;;;;;;10.50;7.20;;;;;;;-145.18;100.00;46668.22;5008694;28;20033;-72
2023/09/18 09:48:30;;;;;;;8.43;7.43;;;;;;;-145.18;100.00;46660.41;5004824;28;20665;-72
2023/09/18 09:50:59;;;;;;;10.60;7.97;;;;;;;-145.18;100.00;46656.50;5011958;28;20643;-72
2023/09/18 09:53:44;;;;;;;8.33;6.40;;;;;;;-145.18;100.00;46656.50;5012867;28;20108;-71
2023/09/18 09:56:10;;;;;;;7.67;5.70;;;;;;;-145.18;100.00;46654.53;5009105;28;20034;-72
2023/09/18 09:58:35;;;;;;;11.13;6.20;;;;;;;-145.18;100.00;46660.41;5011232;28;20347;-72
2023/09/18 10:01:08;;;;;;;7.27;5.67;;;;;;;-145.18;100.00;46660.41;5012787;28;20041;-71
2023/09/18 10:03:35;;;;;;;12.70;5.60;;;;;;;-145.18;100.00;46658.44;5010010;28;20028;-72
2023/09/18 10:06:04;;;;;;;7.93;5.40;;;;;;;-145.18;100.00;46658.44;5003646;28;20045;-72
2023/09/18 10:08:32;;;;;;;6.20;5.30;;;;;;;-145.18;100.00;46656.50;5012628;28;20034;-71
2023/09/18 10:11:07;;;;;;;6.30;5.30;;;;;;;-145.18;100.00;46658.44;5013049;28;20434;-72
2023/09/18 10:13:40;;;;;;;7.83;5.23;;;;;;;-145.18;100.00;46654.53;5012281;28;20440;-72
2023/09/18 10:16:07;;;;;;;11.33;5.70;;;;;;;-145.18;100.00;46650.63;5005921;28;20057;-72
2023/09/18 10:19:08;;;;;;;10.33;4.80;;;;;;;-145.18;100.00;46656.50;5007062;28;20100;-72
2023/09/18 10:21:48;;;;;;;9.60;5.13;;;;;;;-145.18;100.00;46652.59;5005866;28;20030;-72
2023/09/18 10:24:30;;;;;;;9.50;5.30;;;;;;;-145.18;100.00;46666.25;5010212;28;20037;-72
2023/09/18 10:26:59;;;;;;;6.77;4.57;;;;;;;-145.18;100.00;46670.16;5011796;28;20120;-71
2023/09/18 10:29:25;;;;;;;10.70;4.80;;;;;;;-145.18;100.00;46674.06;5010342;28;20132;-72
2023/09/18 10:31:53;;;;;;;7.77;4.90;;;;;;;-145.18;100.00;46674.06;5007057;28;20042;-71
2023/09/18 10:34:19;;;;;;;7.60;4.50;;;;;;;-145.18;100.00;46674.06;5012501;28;20033;-71
2023/09/18 10:36:47;;;;;;;7.23;4.40;;;;;;;-145.18;100.00;46677.97;5010106;28;20036;-71
2023/09/18 10:39:19;;;;;;;7.97;4.63;;;;;;;-145.18;100.00;46679.94;5010199;28;20067;-71
2023/09/18 10:41:47;;;;;;;7.27;4.50;;;;;;;-145.18;100.00;46679.94;4998244;28;20026;-71
2023/09/18 10:44:13;;;;;;;7.30;4.90;;;;;;;-145.18;100.00;46677.97;5001427;28;20030;-71
2023/09/18 10:46:39;;;;;;;9.17;6.23;;;;;;;-145.18;100.00;46674.06;5010973;28;20483;-71
2023/09/18 10:49:05;;;;;;;11.17;6.13;;;;;;;-145.18;100.00;46676.03;5003776;28;20042;-71
2023/09/18 10:51:33;;;;;;;11.53;6.20;;;;;;;-145.18;100.00;46670.16;5008914;28;20046;-71
2023/09/18 10:53:59;;;;;;;10.47;7.67;;;;;;;-145.18;100.00;46672.13;5011975;28;20521;-63
2023/09/18 10:56:26;;;;;;;10.93;7.27;;;;;;;-145.18;100.00;46676.03;5007126;28;20033;-63
2023/09/18 10:59:03;;;;;;;12.50;7.10;;;;;;;-145.18;100.00;46677.97;5010580;28;20034;-62
2023/09/18 11:01:32;;;;;;;10.90;7.60;;;;;;;-145.18;100.00;46674.06;5011659;28;20709;-63